sensor_id;sensor_type;location;lat;lon;timestamp;P1;durP1;ratioP1;P2;durP2;ratioP2
73359;SDS011;63092;43.582;19.528;2022-12-07T00:01:21;191.35;;;63.13;;
73359;SDS011;63092;43.582;19.528;2022-12-07T00:03:48;184.43;;;62.42;;
73359;SDS011;63092;43.582;19.528;2022-12-07T00:06:16;177.45;;;59.33;;
73359;SDS011;63092;43.582;19.528;2022-12-07T00:08:42;165.88;;;54.00;;
73359;SDS011;63092;43.582;19.528;2022-12-07T00:11:10;138.75;;;52.60;;
73359;SDS011;63092;43.582;19.528;2022-12-07T00:13:41;147.93;;;50.45;;
73359;SDS011;63092;43.582;19.528;2022-12-07T00:16:09;128.15;;;46.17;;
73359;SDS011;63092;43.582;19.528;2022-12-07T00:18:36;122.53;;;46.90;;
73359;SDS011;63092;43.582;19.528;2022-12-07T00:23:29;128.18;;;50.20;;
73359;SDS011;63092;43.582;19.528;2022-12-07T00:25:55;211.10;;;83.22;;
73359;SDS011;63092;43.582;19.528;2022-12-07T00:28:21;138.43;;;55.90;;
73359;SDS011;63092;43.582;19.528;2022-12-07T00:30:47;131.55;;;50.17;;
73359;SDS011;63092;43.582;19.528;2022-12-07T00:33:12;113.57;;;45.97;;
73359;SDS011;63092;43.582;19.528;2022-12-07T00:35:38;145.32;;;48.45;;
73359;SDS011;63092;43.582;19.528;2022-12-07T00:38:04;129.15;;;48.88;;
73359;SDS011;63092;43.582;19.528;2022-12-07T00:40:29;126.85;;;49.25;;
73359;SDS011;63092;43.582;19.528;2022-12-07T00:42:55;132.52;;;52.55;;
73359;SDS011;63092;43.582;19.528;2022-12-07T00:45:21;154.63;;;57.38;;
73359;SDS011;63092;43.582;19.528;2022-12-07T00:47:46;151.13;;;57.50;;
73359;SDS011;63092;43.582;19.528;2022-12-07T00:50:12;155.60;;;61.85;;
73359;SDS011;63092;43.582;19.528;2022-12-07T00:52:38;136.35;;;54.92;;
73359;SDS011;63092;43.582;19.528;2022-12-07T00:55:06;142.20;;;54.88;;
73359;SDS011;63092;43.582;19.528;2022-12-07T00:57:32;123.68;;;46.92;;
73359;SDS011;63092;43.582;19.528;2022-12-07T00:59:58;147.88;;;55.58;;
73359;SDS011;63092;43.582;19.528;2022-12-07T01:02:25;147.02;;;59.53;;
73359;SDS011;63092;43.582;19.528;2022-12-07T01:04:51;161.93;;;64.68;;
73359;SDS011;63092;43.582;19.528;2022-12-07T01:07:16;111.80;;;45.72;;
73359;SDS011;63092;43.582;19.528;2022-12-07T01:09:42;123.55;;;47.47;;
73359;SDS011;63092;43.582;19.528;2022-12-07T01:12:08;172.93;;;61.55;;
73359;SDS011;63092;43.582;19.528;2022-12-07T01:14:34;108.05;;;40.30;;
73359;SDS011;63092;43.582;19.528;2022-12-07T01:16:59;106.10;;;41.17;;
73359;SDS011;63092;43.582;19.528;2022-12-07T01:19:25;92.43;;;38.70;;
73359;SDS011;63092;43.582;19.528;2022-12-07T01:21:51;100.88;;;40.67;;
73359;SDS011;63092;43.582;19.528;2022-12-07T01:24:16;111.53;;;41.88;;
73359;SDS011;63092;43.582;19.528;2022-12-07T01:26:42;97.95;;;39.22;;
73359;SDS011;63092;43.582;19.528;2022-12-07T01:29:08;107.15;;;41.95;;
73359;SDS011;63092;43.582;19.528;2022-12-07T01:31:33;106.70;;;43.03;;
73359;SDS011;63092;43.582;19.528;2022-12-07T01:33:59;97.65;;;41.13;;
73359;SDS011;63092;43.582;19.528;2022-12-07T01:36:30;98.85;;;37.90;;
73359;SDS011;63092;43.582;19.528;2022-12-07T01:38:58;103.28;;;38.97;;
73359;SDS011;63092;43.582;19.528;2022-12-07T01:41:26;105.65;;;40.65;;
73359;SDS011;63092;43.582;19.528;2022-12-07T01:46:58;108.45;;;41.83;;
73359;SDS011;63092;43.582;19.528;2022-12-07T01:49:39;219.90;;;92.22;;
73359;SDS011;63092;43.582;19.528;2022-12-07T01:52:16;136.63;;;56.85;;
73359;SDS011;63092;43.582;19.528;2022-12-07T01:54:46;122.13;;;47.58;;
73359;SDS011;63092;43.582;19.528;2022-12-07T01:57:14;93.60;;;33.85;;
73359;SDS011;63092;43.582;19.528;2022-12-07T01:59:42;88.78;;;33.97;;
73359;SDS011;63092;43.582;19.528;2022-12-07T02:02:13;91.43;;;33.53;;
73359;SDS011;63092;43.582;19.528;2022-12-07T02:04:47;105.82;;;38.35;;
73359;SDS011;63092;43.582;19.528;2022-12-07T02:07:16;86.47;;;32.78;;
73359;SDS011;63092;43.582;19.528;2022-12-07T02:09:42;94.28;;;34.95;;
73359;SDS011;63092;43.582;19.528;2022-12-07T02:12:08;73.90;;;29.52;;
73359;SDS011;63092;43.582;19.528;2022-12-07T02:14:33;79.70;;;30.30;;
73359;SDS011;63092;43.582;19.528;2022-12-07T02:17:03;71.25;;;29.02;;
73359;SDS011;63092;43.582;19.528;2022-12-07T02:24:53;86.22;;;32.92;;
73359;SDS011;63092;43.582;19.528;2022-12-07T02:27:28;72.10;;;30.25;;
73359;SDS011;63092;43.582;19.528;2022-12-07T02:35:05;345.73;;;108.88;;
73359;SDS011;63092;43.582;19.528;2022-12-07T02:37:48;203.82;;;62.50;;
73359;SDS011;63092;43.582;19.528;2022-12-07T02:40:36;179.63;;;61.90;;
73359;SDS011;63092;43.582;19.528;2022-12-07T02:45:51;135.18;;;47.88;;
73359;SDS011;63092;43.582;19.528;2022-12-07T02:48:21;137.38;;;44.85;;
73359;SDS011;63092;43.582;19.528;2022-12-07T02:50:53;110.18;;;35.90;;
73359;SDS011;63092;43.582;19.528;2022-12-07T02:56:01;118.82;;;33.88;;
73359;SDS011;63092;43.582;19.528;2022-12-07T03:06:56;87.78;;;27.50;;
73359;SDS011;63092;43.582;19.528;2022-12-07T03:10:09;106.95;;;28.70;;
73359;SDS011;63092;43.582;19.528;2022-12-07T03:18:39;100.78;;;32.67;;
73359;SDS011;63092;43.582;19.528;2022-12-07T03:21:11;119.72;;;33.63;;
73359;SDS011;63092;43.582;19.528;2022-12-07T03:23:43;107.90;;;33.33;;
73359;SDS011;63092;43.582;19.528;2022-12-07T03:28:44;131.80;;;33.03;;
73359;SDS011;63092;43.582;19.528;2022-12-07T03:31:19;140.80;;;39.83;;
73359;SDS011;63092;43.582;19.528;2022-12-07T03:36:28;198.27;;;46.55;;
73359;SDS011;63092;43.582;19.528;2022-12-07T03:39:06;193.82;;;44.83;;
73359;SDS011;63092;43.582;19.528;2022-12-07T03:44:00;108.32;;;38.63;;
73359;SDS011;63092;43.582;19.528;2022-12-07T03:46:37;92.43;;;37.15;;
73359;SDS011;63092;43.582;19.528;2022-12-07T03:49:20;89.78;;;33.95;;
73359;SDS011;63092;43.582;19.528;2022-12-07T03:55:20;84.18;;;33.92;;
73359;SDS011;63092;43.582;19.528;2022-12-07T03:57:49;88.85;;;33.03;;
73359;SDS011;63092;43.582;19.528;2022-12-07T04:00:18;91.68;;;32.75;;
73359;SDS011;63092;43.582;19.528;2022-12-07T04:02:44;81.22;;;31.77;;
73359;SDS011;63092;43.582;19.528;2022-12-07T04:05:10;72.75;;;28.98;;
73359;SDS011;63092;43.582;19.528;2022-12-07T04:07:36;69.53;;;27.88;;
73359;SDS011;63092;43.582;19.528;2022-12-07T04:10:02;72.47;;;28.05;;
73359;SDS011;63092;43.582;19.528;2022-12-07T04:12:29;68.80;;;25.85;;
73359;SDS011;63092;43.582;19.528;2022-12-07T04:14:54;65.38;;;25.92;;
73359;SDS011;63092;43.582;19.528;2022-12-07T04:17:20;65.90;;;27.20;;
73359;SDS011;63092;43.582;19.528;2022-12-07T04:19:46;61.13;;;27.27;;
73359;SDS011;63092;43.582;19.528;2022-12-07T04:22:12;67.50;;;27.52;;
73359;SDS011;63092;43.582;19.528;2022-12-07T04:24:38;55.30;;;25.33;;
73359;SDS011;63092;43.582;19.528;2022-12-07T04:27:04;67.22;;;29.00;;
73359;SDS011;63092;43.582;19.528;2022-12-07T04:29:29;67.68;;;31.83;;
73359;SDS011;63092;43.582;19.528;2022-12-07T04:31:55;66.40;;;29.98;;
73359;SDS011;63092;43.582;19.528;2022-12-07T04:34:21;77.07;;;32.33;;
73359;SDS011;63092;43.582;19.528;2022-12-07T04:36:47;78.50;;;34.03;;
73359;SDS011;63092;43.582;19.528;2022-12-07T04:39:20;82.30;;;33.58;;
73359;SDS011;63092;43.582;19.528;2022-12-07T04:41:48;69.63;;;29.58;;
73359;SDS011;63092;43.582;19.528;2022-12-07T04:44:14;67.00;;;29.65;;
73359;SDS011;63092;43.582;19.528;2022-12-07T04:46:41;70.82;;;33.70;;
73359;SDS011;63092;43.582;19.528;2022-12-07T04:49:07;69.88;;;35.25;;
73359;SDS011;63092;43.582;19.528;2022-12-07T04:51:33;65.72;;;31.92;;
73359;SDS011;63092;43.582;19.528;2022-12-07T04:53:58;70.82;;;32.05;;
73359;SDS011;63092;43.582;19.528;2022-12-07T04:56:24;72.30;;;33.05;;
73359;SDS011;63092;43.582;19.528;2022-12-07T04:58:51;68.40;;;33.83;;
73359;SDS011;63092;43.582;19.528;2022-12-07T05:01:18;78.10;;;34.78;;
73359;SDS011;63092;43.582;19.528;2022-12-07T05:03:44;81.22;;;32.13;;
73359;SDS011;63092;43.582;19.528;2022-12-07T05:06:10;80.22;;;33.03;;
73359;SDS011;63092;43.582;19.528;2022-12-07T05:08:36;82.07;;;32.45;;
73359;SDS011;63092;43.582;19.528;2022-12-07T05:11:03;74.05;;;30.67;;
73359;SDS011;63092;43.582;19.528;2022-12-07T05:13:30;93.25;;;31.10;;
73359;SDS011;63092;43.582;19.528;2022-12-07T05:15:56;105.63;;;36.70;;
73359;SDS011;63092;43.582;19.528;2022-12-07T05:18:21;98.32;;;35.05;;
73359;SDS011;63092;43.582;19.528;2022-12-07T05:20:47;97.38;;;34.78;;
73359;SDS011;63092;43.582;19.528;2022-12-07T05:23:13;112.15;;;38.17;;
73359;SDS011;63092;43.582;19.528;2022-12-07T05:25:39;92.30;;;38.00;;
73359;SDS011;63092;43.582;19.528;2022-12-07T05:28:05;112.32;;;40.55;;
73359;SDS011;63092;43.582;19.528;2022-12-07T05:30:31;96.80;;;37.55;;
73359;SDS011;63092;43.582;19.528;2022-12-07T05:32:57;124.65;;;40.80;;
73359;SDS011;63092;43.582;19.528;2022-12-07T05:35:23;124.05;;;44.22;;
73359;SDS011;63092;43.582;19.528;2022-12-07T05:37:49;107.00;;;40.20;;
73359;SDS011;63092;43.582;19.528;2022-12-07T05:40:15;84.93;;;34.95;;
73359;SDS011;63092;43.582;19.528;2022-12-07T05:42:41;75.63;;;33.03;;
73359;SDS011;63092;43.582;19.528;2022-12-07T05:45:08;122.70;;;36.58;;
73359;SDS011;63092;43.582;19.528;2022-12-07T05:47:34;90.18;;;35.08;;
73359;SDS011;63092;43.582;19.528;2022-12-07T05:50:01;97.20;;;36.65;;
73359;SDS011;63092;43.582;19.528;2022-12-07T05:52:27;93.25;;;34.78;;
73359;SDS011;63092;43.582;19.528;2022-12-07T05:54:53;97.22;;;38.85;;
73359;SDS011;63092;43.582;19.528;2022-12-07T05:57:19;164.18;;;65.05;;
73359;SDS011;63092;43.582;19.528;2022-12-07T05:59:45;130.25;;;54.75;;
73359;SDS011;63092;43.582;19.528;2022-12-07T06:02:11;112.05;;;50.28;;
73359;SDS011;63092;43.582;19.528;2022-12-07T06:04:40;103.13;;;45.10;;
73359;SDS011;63092;43.582;19.528;2022-12-07T06:07:11;97.03;;;43.30;;
73359;SDS011;63092;43.582;19.528;2022-12-07T06:09:38;93.28;;;41.75;;
73359;SDS011;63092;43.582;19.528;2022-12-07T06:12:04;80.68;;;38.05;;
73359;SDS011;63092;43.582;19.528;2022-12-07T06:14:49;100.75;;;45.50;;
73359;SDS011;63092;43.582;19.528;2022-12-07T06:17:14;98.93;;;42.58;;
73359;SDS011;63092;43.582;19.528;2022-12-07T06:19:40;144.18;;;49.88;;
73359;SDS011;63092;43.582;19.528;2022-12-07T06:22:06;108.25;;;46.40;;
73359;SDS011;63092;43.582;19.528;2022-12-07T06:24:34;128.07;;;57.80;;
73359;SDS011;63092;43.582;19.528;2022-12-07T06:27:00;125.60;;;53.33;;
73359;SDS011;63092;43.582;19.528;2022-12-07T06:29:25;132.70;;;57.20;;
73359;SDS011;63092;43.582;19.528;2022-12-07T06:31:51;119.20;;;50.78;;
73359;SDS011;63092;43.582;19.528;2022-12-07T06:34:19;106.97;;;45.80;;
73359;SDS011;63092;43.582;19.528;2022-12-07T06:36:47;95.10;;;43.80;;
73359;SDS011;63092;43.582;19.528;2022-12-07T06:39:16;104.28;;;45.05;;
73359;SDS011;63092;43.582;19.528;2022-12-07T06:41:43;127.03;;;58.25;;
73359;SDS011;63092;43.582;19.528;2022-12-07T06:44:09;115.30;;;49.63;;
73359;SDS011;63092;43.582;19.528;2022-12-07T06:46:35;96.28;;;39.00;;
73359;SDS011;63092;43.582;19.528;2022-12-07T06:49:01;110.30;;;39.03;;
73359;SDS011;63092;43.582;19.528;2022-12-07T06:51:27;98.35;;;36.20;;
73359;SDS011;63092;43.582;19.528;2022-12-07T06:53:53;85.05;;;33.20;;
73359;SDS011;63092;43.582;19.528;2022-12-07T06:56:18;89.22;;;37.58;;
73359;SDS011;63092;43.582;19.528;2022-12-07T06:58:44;107.35;;;39.55;;
73359;SDS011;63092;43.582;19.528;2022-12-07T07:01:11;99.90;;;39.15;;
73359;SDS011;63092;43.582;19.528;2022-12-07T07:03:38;104.35;;;40.25;;
73359;SDS011;63092;43.582;19.528;2022-12-07T07:06:04;95.82;;;39.45;;
73359;SDS011;63092;43.582;19.528;2022-12-07T07:08:32;88.43;;;38.60;;
73359;SDS011;63092;43.582;19.528;2022-12-07T07:11:01;105.45;;;46.53;;
73359;SDS011;63092;43.582;19.528;2022-12-07T07:13:27;81.93;;;39.25;;
73359;SDS011;63092;43.582;19.528;2022-12-07T07:15:54;83.55;;;38.60;;
73359;SDS011;63092;43.582;19.528;2022-12-07T07:18:19;62.92;;;32.83;;
73359;SDS011;63092;43.582;19.528;2022-12-07T07:20:45;72.25;;;34.92;;
73359;SDS011;63092;43.582;19.528;2022-12-07T07:23:11;73.53;;;38.85;;
73359;SDS011;63092;43.582;19.528;2022-12-07T07:25:37;97.85;;;46.60;;
73359;SDS011;63092;43.582;19.528;2022-12-07T07:28:03;89.65;;;46.45;;
73359;SDS011;63092;43.582;19.528;2022-12-07T07:30:29;70.47;;;36.03;;
73359;SDS011;63092;43.582;19.528;2022-12-07T07:32:58;85.07;;;42.58;;
73359;SDS011;63092;43.582;19.528;2022-12-07T07:35:26;80.13;;;40.72;;
73359;SDS011;63092;43.582;19.528;2022-12-07T07:37:52;60.80;;;34.05;;
73359;SDS011;63092;43.582;19.528;2022-12-07T07:40:18;57.08;;;33.13;;
73359;SDS011;63092;43.582;19.528;2022-12-07T07:42:46;45.78;;;27.92;;
73359;SDS011;63092;43.582;19.528;2022-12-07T07:45:16;52.20;;;28.88;;
73359;SDS011;63092;43.582;19.528;2022-12-07T07:47:42;46.78;;;26.42;;
73359;SDS011;63092;43.582;19.528;2022-12-07T07:50:08;49.78;;;28.75;;
73359;SDS011;63092;43.582;19.528;2022-12-07T07:52:34;47.22;;;27.08;;
73359;SDS011;63092;43.582;19.528;2022-12-07T07:55:00;71.43;;;32.45;;
73359;SDS011;63092;43.582;19.528;2022-12-07T07:57:25;55.65;;;28.02;;
73359;SDS011;63092;43.582;19.528;2022-12-07T07:59:52;50.03;;;27.45;;
73359;SDS011;63092;43.582;19.528;2022-12-07T08:02:18;55.42;;;29.85;;
73359;SDS011;63092;43.582;19.528;2022-12-07T08:04:47;60.33;;;32.75;;
73359;SDS011;63092;43.582;19.528;2022-12-07T08:07:13;57.10;;;31.02;;
73359;SDS011;63092;43.582;19.528;2022-12-07T08:09:40;167.98;;;87.85;;
73359;SDS011;63092;43.582;19.528;2022-12-07T08:12:05;135.27;;;64.22;;
73359;SDS011;63092;43.582;19.528;2022-12-07T08:14:31;74.90;;;44.10;;
73359;SDS011;63092;43.582;19.528;2022-12-07T08:16:57;52.63;;;29.80;;
73359;SDS011;63092;43.582;19.528;2022-12-07T08:19:23;45.75;;;27.00;;
73359;SDS011;63092;43.582;19.528;2022-12-07T08:21:49;41.67;;;22.30;;
73359;SDS011;63092;43.582;19.528;2022-12-07T08:24:15;31.63;;;18.77;;
73359;SDS011;63092;43.582;19.528;2022-12-07T08:26:41;45.50;;;27.70;;
73359;SDS011;63092;43.582;19.528;2022-12-07T08:29:07;39.05;;;22.98;;
73359;SDS011;63092;43.582;19.528;2022-12-07T08:31:33;42.28;;;24.30;;
73359;SDS011;63092;43.582;19.528;2022-12-07T08:33:59;41.15;;;23.92;;
73359;SDS011;63092;43.582;19.528;2022-12-07T08:36:25;49.95;;;28.02;;
73359;SDS011;63092;43.582;19.528;2022-12-07T08:38:50;64.60;;;35.22;;
73359;SDS011;63092;43.582;19.528;2022-12-07T08:41:16;63.28;;;38.05;;
73359;SDS011;63092;43.582;19.528;2022-12-07T08:43:42;43.58;;;25.90;;
73359;SDS011;63092;43.582;19.528;2022-12-07T08:46:09;42.05;;;23.95;;
73359;SDS011;63092;43.582;19.528;2022-12-07T08:48:49;40.35;;;23.58;;
73359;SDS011;63092;43.582;19.528;2022-12-07T08:51:18;32.42;;;19.63;;
73359;SDS011;63092;43.582;19.528;2022-12-07T08:53:46;29.08;;;18.33;;
73359;SDS011;63092;43.582;19.528;2022-12-07T08:56:12;27.98;;;17.27;;
73359;SDS011;63092;43.582;19.528;2022-12-07T08:58:38;28.83;;;14.77;;
73359;SDS011;63092;43.582;19.528;2022-12-07T09:01:04;23.83;;;15.32;;
73359;SDS011;63092;43.582;19.528;2022-12-07T09:03:30;24.13;;;15.43;;
73359;SDS011;63092;43.582;19.528;2022-12-07T09:05:57;21.77;;;14.48;;
73359;SDS011;63092;43.582;19.528;2022-12-07T09:08:24;19.90;;;12.82;;
73359;SDS011;63092;43.582;19.528;2022-12-07T09:10:54;20.98;;;11.48;;
73359;SDS011;63092;43.582;19.528;2022-12-07T09:13:20;22.40;;;14.88;;
73359;SDS011;63092;43.582;19.528;2022-12-07T09:15:46;25.48;;;15.68;;
73359;SDS011;63092;43.582;19.528;2022-12-07T09:18:11;37.42;;;20.63;;
73359;SDS011;63092;43.582;19.528;2022-12-07T09:20:37;64.15;;;30.83;;
73359;SDS011;63092;43.582;19.528;2022-12-07T09:23:05;32.58;;;19.20;;
73359;SDS011;63092;43.582;19.528;2022-12-07T09:25:32;33.03;;;20.73;;
73359;SDS011;63092;43.582;19.528;2022-12-07T09:27:58;30.92;;;19.42;;
73359;SDS011;63092;43.582;19.528;2022-12-07T09:30:25;29.90;;;17.52;;
73359;SDS011;63092;43.582;19.528;2022-12-07T09:32:55;25.48;;;15.55;;
73359;SDS011;63092;43.582;19.528;2022-12-07T09:35:21;26.95;;;18.05;;
73359;SDS011;63092;43.582;19.528;2022-12-07T09:37:48;21.02;;;12.82;;
73359;SDS011;63092;43.582;19.528;2022-12-07T09:40:14;29.95;;;14.30;;
73359;SDS011;63092;43.582;19.528;2022-12-07T09:42:42;26.00;;;16.17;;
73359;SDS011;63092;43.582;19.528;2022-12-07T09:45:21;22.42;;;13.85;;
73359;SDS011;63092;43.582;19.528;2022-12-07T09:48:05;27.77;;;16.00;;
73359;SDS011;63092;43.582;19.528;2022-12-07T09:50:40;27.60;;;17.55;;
73359;SDS011;63092;43.582;19.528;2022-12-07T09:53:10;27.25;;;15.30;;
73359;SDS011;63092;43.582;19.528;2022-12-07T09:55:43;21.60;;;13.80;;
73359;SDS011;63092;43.582;19.528;2022-12-07T09:58:17;22.88;;;14.43;;
73359;SDS011;63092;43.582;19.528;2022-12-07T10:00:46;26.63;;;16.92;;
73359;SDS011;63092;43.582;19.528;2022-12-07T10:03:12;21.27;;;12.77;;
73359;SDS011;63092;43.582;19.528;2022-12-07T10:05:39;22.38;;;12.50;;
73359;SDS011;63092;43.582;19.528;2022-12-07T10:08:13;19.60;;;13.07;;
73359;SDS011;63092;43.582;19.528;2022-12-07T10:10:42;25.25;;;15.02;;
73359;SDS011;63092;43.582;19.528;2022-12-07T10:13:12;22.30;;;14.65;;
73359;SDS011;63092;43.582;19.528;2022-12-07T10:15:53;29.50;;;16.35;;
73359;SDS011;63092;43.582;19.528;2022-12-07T10:20:47;25.23;;;16.10;;
73359;SDS011;63092;43.582;19.528;2022-12-07T10:23:14;24.08;;;14.80;;
73359;SDS011;63092;43.582;19.528;2022-12-07T10:25:42;24.52;;;14.73;;
73359;SDS011;63092;43.582;19.528;2022-12-07T10:30:56;21.02;;;12.50;;
73359;SDS011;63092;43.582;19.528;2022-12-07T10:33:34;22.60;;;14.07;;
73359;SDS011;63092;43.582;19.528;2022-12-07T10:36:15;22.50;;;13.38;;
73359;SDS011;63092;43.582;19.528;2022-12-07T10:38:52;23.25;;;12.98;;
73359;SDS011;63092;43.582;19.528;2022-12-07T10:41:24;23.73;;;14.40;;
73359;SDS011;63092;43.582;19.528;2022-12-07T10:43:55;26.58;;;17.08;;
73359;SDS011;63092;43.582;19.528;2022-12-07T10:55:00;21.85;;;13.25;;
73359;SDS011;63092;43.582;19.528;2022-12-07T11:03:28;21.95;;;13.23;;
73359;SDS011;63092;43.582;19.528;2022-12-07T11:09:56;27.17;;;16.80;;
73359;SDS011;63092;43.582;19.528;2022-12-07T11:12:10;20.90;;;12.27;;
73359;SDS011;63092;43.582;19.528;2022-12-07T11:17:52;50.22;;;26.58;;
73359;SDS011;63092;43.582;19.528;2022-12-07T11:31:24;22.63;;;13.25;;
73359;SDS011;63092;43.582;19.528;2022-12-07T11:34:00;22.73;;;13.50;;
73359;SDS011;63092;43.582;19.528;2022-12-07T11:36:54;22.63;;;14.20;;
73359;SDS011;63092;43.582;19.528;2022-12-07T11:41:48;26.13;;;14.18;;
73359;SDS011;63092;43.582;19.528;2022-12-07T11:44:25;22.52;;;11.95;;
73359;SDS011;63092;43.582;19.528;2022-12-07T11:47:07;28.80;;;16.83;;
73359;SDS011;63092;43.582;19.528;2022-12-07T11:49:44;28.42;;;17.45;;
73359;SDS011;63092;43.582;19.528;2022-12-07T11:53:09;25.38;;;15.93;;
73359;SDS011;63092;43.582;19.528;2022-12-07T11:55:27;28.70;;;17.95;;
73359;SDS011;63092;43.582;19.528;2022-12-07T11:58:23;20.35;;;13.30;;
73359;SDS011;63092;43.582;19.528;2022-12-07T12:01:08;20.83;;;13.02;;
73359;SDS011;63092;43.582;19.528;2022-12-07T12:03:37;23.05;;;15.35;;
73359;SDS011;63092;43.582;19.528;2022-12-07T12:06:08;22.65;;;14.70;;
73359;SDS011;63092;43.582;19.528;2022-12-07T12:08:36;32.92;;;19.67;;
73359;SDS011;63092;43.582;19.528;2022-12-07T12:22:37;17.38;;;10.15;;
73359;SDS011;63092;43.582;19.528;2022-12-07T12:25:07;17.02;;;10.70;;
73359;SDS011;63092;43.582;19.528;2022-12-07T12:27:44;23.58;;;15.43;;
73359;SDS011;63092;43.582;19.528;2022-12-07T12:33:22;21.65;;;13.30;;
73359;SDS011;63092;43.582;19.528;2022-12-07T12:46:55;35.70;;;20.20;;
73359;SDS011;63092;43.582;19.528;2022-12-07T12:51:58;30.73;;;18.50;;
73359;SDS011;63092;43.582;19.528;2022-12-07T12:54:39;20.85;;;13.77;;
73359;SDS011;63092;43.582;19.528;2022-12-07T12:57:29;30.17;;;19.33;;
73359;SDS011;63092;43.582;19.528;2022-12-07T13:02:27;44.75;;;28.83;;
73359;SDS011;63092;43.582;19.528;2022-12-07T13:05:37;37.53;;;20.27;;
73359;SDS011;63092;43.582;19.528;2022-12-07T13:07:58;30.13;;;18.40;;
73359;SDS011;63092;43.582;19.528;2022-12-07T13:26:04;40.20;;;22.45;;
73359;SDS011;63092;43.582;19.528;2022-12-07T13:28:38;22.23;;;14.88;;
73359;SDS011;63092;43.582;19.528;2022-12-07T13:33:56;24.48;;;16.30;;
73359;SDS011;63092;43.582;19.528;2022-12-07T13:36:23;17.15;;;11.05;;
73359;SDS011;63092;43.582;19.528;2022-12-07T13:38:54;20.30;;;12.75;;
73359;SDS011;63092;43.582;19.528;2022-12-07T13:41:23;51.08;;;27.23;;
73359;SDS011;63092;43.582;19.528;2022-12-07T13:46:32;91.28;;;47.30;;
73359;SDS011;63092;43.582;19.528;2022-12-07T13:49:18;39.33;;;23.35;;
73359;SDS011;63092;43.582;19.528;2022-12-07T13:51:46;19.95;;;11.82;;
73359;SDS011;63092;43.582;19.528;2022-12-07T13:54:13;16.98;;;10.93;;
73359;SDS011;63092;43.582;19.528;2022-12-07T13:56:39;97.95;;;52.80;;
73359;SDS011;63092;43.582;19.528;2022-12-07T13:59:13;48.72;;;26.00;;
73359;SDS011;63092;43.582;19.528;2022-12-07T14:01:42;47.33;;;29.77;;
73359;SDS011;63092;43.582;19.528;2022-12-07T14:06:53;29.20;;;17.08;;
73359;SDS011;63092;43.582;19.528;2022-12-07T14:09:25;38.92;;;25.35;;
73359;SDS011;63092;43.582;19.528;2022-12-07T14:11:53;35.13;;;21.48;;
73359;SDS011;63092;43.582;19.528;2022-12-07T14:14:22;29.73;;;18.97;;
73359;SDS011;63092;43.582;19.528;2022-12-07T14:25:09;34.03;;;20.40;;
73359;SDS011;63092;43.582;19.528;2022-12-07T14:27:37;32.17;;;18.98;;
73359;SDS011;63092;43.582;19.528;2022-12-07T14:30:04;20.85;;;11.63;;
73359;SDS011;63092;43.582;19.528;2022-12-07T14:32:31;30.92;;;16.55;;
73359;SDS011;63092;43.582;19.528;2022-12-07T14:35:08;68.25;;;29.88;;
73359;SDS011;63092;43.582;19.528;2022-12-07T14:37:36;24.63;;;16.02;;
73359;SDS011;63092;43.582;19.528;2022-12-07T14:40:03;17.60;;;11.35;;
73359;SDS011;63092;43.582;19.528;2022-12-07T14:42:30;20.05;;;13.98;;
73359;SDS011;63092;43.582;19.528;2022-12-07T14:44:56;28.65;;;20.23;;
73359;SDS011;63092;43.582;19.528;2022-12-07T14:47:22;24.13;;;13.52;;
73359;SDS011;63092;43.582;19.528;2022-12-07T14:49:49;64.75;;;32.38;;
73359;SDS011;63092;43.582;19.528;2022-12-07T14:52:36;26.08;;;16.27;;
73359;SDS011;63092;43.582;19.528;2022-12-07T14:55:00;33.45;;;21.25;;
73359;SDS011;63092;43.582;19.528;2022-12-07T14:57:26;32.47;;;20.17;;
73359;SDS011;63092;43.582;19.528;2022-12-07T14:59:52;26.65;;;18.05;;
73359;SDS011;63092;43.582;19.528;2022-12-07T15:02:18;69.30;;;37.25;;
73359;SDS011;63092;43.582;19.528;2022-12-07T15:04:43;46.53;;;31.13;;
73359;SDS011;63092;43.582;19.528;2022-12-07T15:07:12;31.42;;;19.65;;
73359;SDS011;63092;43.582;19.528;2022-12-07T15:09:43;46.90;;;31.90;;
73359;SDS011;63092;43.582;19.528;2022-12-07T15:12:09;42.22;;;24.90;;
73359;SDS011;63092;43.582;19.528;2022-12-07T15:14:34;38.13;;;23.20;;
73359;SDS011;63092;43.582;19.528;2022-12-07T15:17:00;97.45;;;49.20;;
73359;SDS011;63092;43.582;19.528;2022-12-07T15:19:26;91.82;;;53.65;;
73359;SDS011;63092;43.582;19.528;2022-12-07T15:21:52;88.18;;;52.25;;
73359;SDS011;63092;43.582;19.528;2022-12-07T15:24:18;86.03;;;52.38;;
73359;SDS011;63092;43.582;19.528;2022-12-07T15:26:45;67.20;;;40.58;;
73359;SDS011;63092;43.582;19.528;2022-12-07T15:29:11;58.85;;;35.75;;
73359;SDS011;63092;43.582;19.528;2022-12-07T15:31:37;33.83;;;21.35;;
73359;SDS011;63092;43.582;19.528;2022-12-07T15:34:03;37.67;;;24.98;;
73359;SDS011;63092;43.582;19.528;2022-12-07T15:36:30;36.00;;;25.67;;
73359;SDS011;63092;43.582;19.528;2022-12-07T15:38:57;30.98;;;21.10;;
73359;SDS011;63092;43.582;19.528;2022-12-07T15:41:23;36.20;;;20.52;;
73359;SDS011;63092;43.582;19.528;2022-12-07T15:43:49;28.58;;;17.45;;
73359;SDS011;63092;43.582;19.528;2022-12-07T15:46:34;46.65;;;29.95;;
73359;SDS011;63092;43.582;19.528;2022-12-07T15:49:02;72.38;;;42.17;;
73359;SDS011;63092;43.582;19.528;2022-12-07T15:51:28;85.82;;;52.45;;
73359;SDS011;63092;43.582;19.528;2022-12-07T15:53:54;70.97;;;43.35;;
73359;SDS011;63092;43.582;19.528;2022-12-07T15:56:20;90.35;;;53.25;;
73359;SDS011;63092;43.582;19.528;2022-12-07T15:58:46;53.00;;;32.78;;
73359;SDS011;63092;43.582;19.528;2022-12-07T16:03:38;43.60;;;28.92;;
73359;SDS011;63092;43.582;19.528;2022-12-07T16:06:04;71.47;;;42.92;;
73359;SDS011;63092;43.582;19.528;2022-12-07T16:08:30;95.43;;;58.88;;
73359;SDS011;63092;43.582;19.528;2022-12-07T16:10:56;65.18;;;43.58;;
73359;SDS011;63092;43.582;19.528;2022-12-07T16:13:22;70.10;;;44.50;;
73359;SDS011;63092;43.582;19.528;2022-12-07T16:15:47;62.33;;;36.75;;
73359;SDS011;63092;43.582;19.528;2022-12-07T16:18:13;67.53;;;38.40;;
73359;SDS011;63092;43.582;19.528;2022-12-07T16:20:39;59.78;;;34.22;;
73359;SDS011;63092;43.582;19.528;2022-12-07T16:23:05;83.18;;;49.97;;
73359;SDS011;63092;43.582;19.528;2022-12-07T16:25:32;115.03;;;64.30;;
73359;SDS011;63092;43.582;19.528;2022-12-07T16:27:58;122.85;;;71.60;;
73359;SDS011;63092;43.582;19.528;2022-12-07T16:30:24;120.10;;;69.80;;
73359;SDS011;63092;43.582;19.528;2022-12-07T16:32:50;111.57;;;66.97;;
73359;SDS011;63092;43.582;19.528;2022-12-07T16:35:16;93.25;;;52.90;;
73359;SDS011;63092;43.582;19.528;2022-12-07T16:37:42;71.32;;;41.80;;
73359;SDS011;63092;43.582;19.528;2022-12-07T16:40:08;84.63;;;51.33;;
73359;SDS011;63092;43.582;19.528;2022-12-07T16:42:35;103.00;;;59.90;;
73359;SDS011;63092;43.582;19.528;2022-12-07T16:45:02;139.43;;;87.93;;
73359;SDS011;63092;43.582;19.528;2022-12-07T16:47:28;107.30;;;61.40;;